Time;durP1;ratioP1;P1;durP2;ratioP2;P2;SDS_P1;SDS_P2;PMS_P1;PMS_P2;Temp;Humidity;BMP_temperature;BMP_pressure;BME280_temperature;BME280_humidity;BME280_pressure;Samples;Min_cycle;Max_cycle;Signal;HPM_P1;HPM_P2
2023/12/28 00:01:33;;;;;;;7.05;6.15;;;18.20;58.00;;;;;;5076393;28;20213;-67
2023/12/28 00:03:59;;;;;;;6.82;6.00;;;18.20;58.00;;;;;;5077877;28;20176;-68
2023/12/28 00:06:24;;;;;;;6.65;5.93;;;18.20;58.00;;;;;;5099293;28;20565;-67
2023/12/28 00:08:50;;;;;;;6.60;5.90;;;18.20;58.00;;;;;;5100118;28;20173;-68
2023/12/28 00:11:16;;;;;;;7.38;6.10;;;18.20;58.00;;;;;;5081776;28;20176;-68
2023/12/28 00:13:42;;;;;;;6.70;6.03;;;18.20;58.00;;;;;;5090490;28;20232;-68
2023/12/28 00:16:07;;;;;;;7.53;6.75;;;18.20;58.00;;;;;;5112831;28;20246;-68
2023/12/28 00:18:33;;;;;;;6.65;5.90;;;18.20;58.00;;;;;;5087191;28;20181;-68
2023/12/28 00:20:59;;;;;;;6.68;6.00;;;18.20;58.00;;;;;;5096699;28;20280;-68
2023/12/28 00:23:25;;;;;;;7.00;6.30;;;18.20;58.00;;;;;;5095856;28;20216;-68
2023/12/28 00:25:50;;;;;;;7.93;6.30;;;18.20;58.00;;;;;;5102236;28;20181;-68
2023/12/28 00:28:16;;;;;;;7.25;6.45;;;18.20;58.00;;;;;;5097845;28;20188;-68
2023/12/28 00:30:42;;;;;;;7.30;6.45;;;18.20;58.00;;;;;;5095400;28;20271;-68
2023/12/28 00:33:08;;;;;;;8.02;6.88;;;18.10;57.90;;;;;;5112324;28;20346;-68
2023/12/28 00:35:34;;;;;;;8.10;6.97;;;18.20;58.00;;;;;;5096717;28;20204;-68
2023/12/28 00:38:00;;;;;;;7.85;7.05;;;18.20;58.00;;;;;;5085351;28;20208;-68
2023/12/28 00:40:25;;;;;;;7.72;6.78;;;18.20;58.00;;;;;;5077965;28;20181;-67
2023/12/28 00:42:51;;;;;;;7.25;6.55;;;18.20;58.00;;;;;;5090188;28;20211;-68
2023/12/28 00:45:17;;;;;;;7.75;6.47;;;18.20;58.00;;;;;;5112063;27;20242;-68
2023/12/28 00:47:43;;;;;;;7.57;6.78;;;18.20;58.00;;;;;;5095254;28;20181;-68
2023/12/28 00:50:14;;;;;;;7.68;6.60;;;18.10;57.80;;;;;;5075712;28;20212;-68
2023/12/28 00:52:40;;;;;;;8.57;7.07;;;18.10;57.90;;;;;;5095001;28;20204;-68
2023/12/28 00:55:07;;;;;;;8.88;6.65;;;18.20;58.00;;;;;;5096325;28;20258;-68
2023/12/28 00:57:33;;;;;;;7.03;6.32;;;18.20;58.00;;;;;;5091949;28;20185;-68
2023/12/28 01:00:00;;;;;;;7.70;6.45;;;18.20;57.90;;;;;;5107159;28;20189;-68
2023/12/28 01:02:27;;;;;;;7.82;6.20;;;18.10;57.90;;;;;;5075070;28;20220;-68
2023/12/28 01:04:53;;;;;;;7.43;6.20;;;18.20;57.90;;;;;;5075000;28;20181;-68
2023/12/28 01:07:19;;;;;;;7.57;6.63;;;18.20;57.90;;;;;;5094348;28;20229;-68
2023/12/28 01:09:45;;;;;;;7.70;6.10;;;18.20;57.90;;;;;;5094756;28;20181;-68
2023/12/28 01:12:10;;;;;;;6.95;6.22;;;18.10;57.90;;;;;;5102554;28;20200;-68
2023/12/28 01:14:36;;;;;;;7.13;5.80;;;18.20;58.00;;;;;;5095603;28;20181;-68
2023/12/28 01:17:02;;;;;;;6.18;5.57;;;18.20;57.90;;;;;;5096759;28;20185;-68
2023/12/28 01:19:28;;;;;;;6.30;5.70;;;18.10;57.90;;;;;;5075080;28;20189;-67
2023/12/28 01:21:53;;;;;;;6.70;5.93;;;18.20;57.90;;;;;;5086259;28;20245;-67
2023/12/28 01:24:19;;;;;;;7.32;6.28;;;18.20;58.00;;;;;;5092093;28;20181;-67
2023/12/28 01:26:45;;;;;;;6.80;6.10;;;18.10;57.80;;;;;;5104459;28;20229;-67
2023/12/28 01:29:11;;;;;;;6.45;5.60;;;18.20;57.90;;;;;;5104226;28;20193;-67
2023/12/28 01:31:38;;;;;;;6.93;6.00;;;18.20;57.90;;;;;;5087324;28;20185;-67
2023/12/28 01:34:04;;;;;;;6.40;5.63;;;18.10;57.80;;;;;;5091706;28;20177;-68
2023/12/28 01:36:30;;;;;;;6.07;5.40;;;18.10;57.80;;;;;;5108693;28;20196;-68
2023/12/28 01:38:56;;;;;;;5.72;5.20;;;18.10;57.80;;;;;;5104155;28;20185;-67
2023/12/28 01:41:22;;;;;;;7.75;5.40;;;18.10;57.80;;;;;;5074940;28;20234;-68
2023/12/28 01:43:47;;;;;;;6.15;5.40;;;18.10;57.80;;;;;;5074785;28;20219;-68
2023/12/28 01:46:21;;;;;;;5.88;5.28;;;18.10;57.80;;;;;;5074249;28;20189;-68
2023/12/28 01:48:50;;;;;;;6.68;5.15;;;18.10;57.80;;;;;;5091788;28;20177;-68
2023/12/28 01:51:17;;;;;;;6.80;5.70;;;18.10;57.80;;;;;;5074129;28;20169;-68
2023/12/28 01:53:49;;;;;;;6.13;5.53;;;18.10;57.70;;;;;;5098098;28;20395;-68
2023/12/28 01:56:17;;;;;;;5.70;5.10;;;18.10;57.70;;;;;;5089266;28;20272;-68
2023/12/28 01:58:46;;;;;;;7.10;5.68;;;18.10;57.70;;;;;;5085421;28;20715;-67
2023/12/28 02:01:11;;;;;;;5.57;4.82;;;18.10;57.70;;;;;;5090206;28;20185;-68
2023/12/28 02:03:38;;;;;;;6.07;5.13;;;18.10;57.80;;;;;;5071231;28;20205;-68
2023/12/28 02:06:07;;;;;;;6.03;5.35;;;18.10;57.80;;;;;;5076631;28;20264;-68
2023/12/28 02:08:33;;;;;;;5.88;5.28;;;18.10;57.80;;;;;;5064585;28;20189;-67
2023/12/28 02:10:59;;;;;;;5.93;5.03;;;18.10;57.80;;;;;;5086112;28;20189;-68
2023/12/28 02:13:25;;;;;;;5.47;4.97;;;18.10;57.80;;;;;;5074327;28;20209;-67
2023/12/28 02:16:06;;;;;;;6.57;5.78;;;18.10;57.80;;;;;;5092966;28;20216;-68
2023/12/28 02:18:43;;;;;;;5.15;4.57;;;18.10;57.60;;;;;;5079179;28;20178;-68
2023/12/28 02:21:12;;;;;;;6.38;4.80;;;18.10;57.80;;;;;;5091708;28;20184;-68
2023/12/28 02:23:38;;;;;;;6.10;4.82;;;18.10;57.70;;;;;;5086442;28;20281;-68
2023/12/28 02:26:04;;;;;;;5.22;4.72;;;18.10;57.70;;;;;;5072315;28;20182;-67
2023/12/28 02:28:30;;;;;;;5.20;4.70;;;18.10;57.70;;;;;;5074378;28;20204;-67
2023/12/28 02:30:56;;;;;;;5.07;4.57;;;18.10;57.70;;;;;;5073848;28;20192;-68
2023/12/28 02:34:12;;;;;;;5.43;4.78;;;18.10;57.70;;;;;;5100742;28;20273;-69
2023/12/28 02:36:44;;;;;;;5.30;4.20;;;18.10;57.70;;;;;;4996688;28;20241;-68
2023/12/28 02:39:14;;;;;;;4.53;4.07;;;18.10;57.80;;;;;;5085382;28;20192;-68
2023/12/28 02:41:43;;;;;;;5.38;4.68;;;18.10;57.80;;;;;;5081992;28;20200;-68
2023/12/28 02:44:09;;;;;;;5.07;4.57;;;18.10;57.80;;;;;;5093502;28;20210;-68
2023/12/28 02:46:35;;;;;;;5.72;5.05;;;18.10;57.70;;;;;;5105954;28;20265;-68
2023/12/28 02:49:01;;;;;;;5.35;4.55;;;18.10;57.60;;;;;;5089593;28;20177;-67
2023/12/28 02:51:27;;;;;;;4.43;3.97;;;18.10;57.70;;;;;;5077474;28;20191;-68
2023/12/28 02:53:52;;;;;;;5.18;4.22;;;18.10;57.70;;;;;;5094734;28;20173;-67
2023/12/28 02:56:18;;;;;;;5.10;4.28;;;18.10;57.60;;;;;;5087659;28;20183;-68
2023/12/28 02:58:44;;;;;;;5.78;4.45;;;18.10;57.70;;;;;;5107487;28;20548;-68
2023/12/28 03:01:09;;;;;;;5.03;4.40;;;18.10;57.60;;;;;;5106983;28;20191;-68
2023/12/28 03:03:35;;;;;;;4.82;4.28;;;18.10;57.60;;;;;;5109098;28;20214;-68
2023/12/28 03:06:01;;;;;;;5.03;4.53;;;18.10;57.60;;;;;;5095125;28;20181;-67
2023/12/28 03:08:26;;;;;;;4.40;4.00;;;18.10;57.60;;;;;;5092843;28;20184;-68
2023/12/28 03:10:52;;;;;;;4.45;4.05;;;18.10;57.60;;;;;;5064491;28;20182;-68
2023/12/28 03:13:18;;;;;;;4.50;3.80;;;18.10;57.50;;;;;;5093601;28;20243;-68
2023/12/28 03:15:45;;;;;;;4.00;3.60;;;18.10;57.50;;;;;;5094763;28;20208;-69
2023/12/28 03:18:12;;;;;;;4.40;4.00;;;18.10;57.60;;;;;;5095332;28;20253;-68
2023/12/28 03:20:37;;;;;;;4.15;3.75;;;18.10;57.60;;;;;;5090922;28;20600;-67
2023/12/28 03:23:05;;;;;;;4.25;3.78;;;18.10;57.60;;;;;;5092313;28;20220;-67
2023/12/28 03:25:31;;;;;;;4.25;3.85;;;18.10;57.60;;;;;;5086949;28;20181;-68
2023/12/28 03:27:57;;;;;;;4.50;4.10;;;18.10;57.60;;;;;;5102374;28;20188;-68
2023/12/28 03:30:22;;;;;;;4.55;4.10;;;18.10;57.60;;;;;;5096168;28;20188;-67
2023/12/28 03:32:48;;;;;;;4.25;3.85;;;18.10;57.60;;;;;;5085461;28;20219;-68
2023/12/28 03:35:16;;;;;;;4.05;3.65;;;18.10;57.60;;;;;;5096453;28;20195;-68
2023/12/28 03:37:42;;;;;;;4.38;3.97;;;18.10;57.60;;;;;;5095136;28;20173;-68
2023/12/28 03:40:08;;;;;;;4.32;3.45;;;18.00;57.60;;;;;;5075191;28;20184;-68
2023/12/28 03:42:34;;;;;;;4.63;3.78;;;18.10;57.60;;;;;;5080685;28;20220;-68
2023/12/28 03:45:00;;;;;;;5.90;4.20;;;18.00;57.50;;;;;;5108993;27;20182;-68
2023/12/28 03:47:25;;;;;;;4.45;3.83;;;18.10;58.20;;;;;;5096135;28;20177;-68
2023/12/28 03:49:51;;;;;;;4.10;3.70;;;18.10;57.60;;;;;;5093647;28;20188;-68
2023/12/28 03:52:17;;;;;;;4.22;3.80;;;18.00;57.40;;;;;;5076137;28;20220;-68
2023/12/28 03:54:43;;;;;;;4.05;3.50;;;18.10;57.60;;;;;;5076700;28;20196;-67
2023/12/28 03:57:08;;;;;;;4.25;3.78;;;18.00;57.70;;;;;;5092192;28;20180;-68
2023/12/28 03:59:34;;;;;;;4.60;4.10;;;18.10;57.60;;;;;;5094731;28;20181;-68
2023/12/28 04:02:00;;;;;;;5.22;4.20;;;18.00;57.40;;;;;;5089475;28;20299;-68
2023/12/28 04:04:25;;;;;;;4.43;3.72;;;18.10;57.50;;;;;;5077970;28;20176;-67
2023/12/28 04:06:51;;;;;;;4.10;3.70;;;18.10;57.50;;;;;;5077301;28;20188;-68
2023/12/28 04:09:18;;;;;;;4.20;3.72;;;18.10;57.50;;;;;;5110108;27;20173;-68
2023/12/28 04:11:44;;;;;;;4.22;3.70;;;18.10;57.50;;;;;;5093917;28;20196;-68
2023/12/28 04:14:09;;;;;;;4.05;3.65;;;18.10;57.60;;;;;;5076680;28;20185;-67
2023/12/28 04:16:35;;;;;;;4.20;3.80;;;18.10;57.50;;;;;;5094467;28;20193;-67
2023/12/28 04:19:02;;;;;;;3.55;3.25;;;18.00;57.40;;;;;;5094211;28;20184;-68
2023/12/28 04:21:27;;;;;;;3.58;3.28;;;18.10;57.50;;;;;;5095967;28;20176;-68
2023/12/28 04:23:53;;;;;;;3.95;3.65;;;18.10;57.40;;;;;;5078705;28;20668;-69
2023/12/28 04:26:20;;;;;;;3.97;3.58;;;18.10;57.50;;;;;;5091559;28;20560;-68
2023/12/28 04:28:46;;;;;;;4.03;3.63;;;18.10;57.50;;;;;;5098856;28;20187;-68
2023/12/28 04:31:12;;;;;;;3.70;3.40;;;18.10;57.40;;;;;;5077032;28;20182;-68
2023/12/28 04:33:37;;;;;;;3.42;3.13;;;18.10;57.60;;;;;;5080494;28;20198;-68
2023/12/28 04:36:05;;;;;;;3.63;3.33;;;18.10;57.50;;;;;;5097930;28;20286;-68
2023/12/28 04:38:31;;;;;;;3.60;3.30;;;18.10;57.50;;;;;;5118678;27;20181;-68
2023/12/28 04:40:59;;;;;;;3.72;3.42;;;18.10;57.50;;;;;;5092579;28;20173;-68
2023/12/28 04:43:25;;;;;;;4.03;3.63;;;18.00;57.40;;;;;;5100403;28;20214;-67
2023/12/28 04:45:51;;;;;;;3.70;3.38;;;18.10;57.40;;;;;;5090338;28;20183;-67
2023/12/28 04:48:20;;;;;;;3.67;3.30;;;18.10;57.50;;;;;;5078043;28;20180;-67
2023/12/28 04:50:48;;;;;;;4.40;3.60;;;18.00;57.40;;;;;;5075564;28;20200;-68
2023/12/28 04:53:14;;;;;;;3.55;3.22;;;18.00;57.30;;;;;;5101196;28;20216;-68
2023/12/28 04:55:39;;;;;;;4.38;3.97;;;18.10;57.50;;;;;;5112462;28;20251;-68
2023/12/28 04:58:05;;;;;;;3.72;3.42;;;18.10;57.50;;;;;;5095402;28;20226;-68
2023/12/28 05:00:31;;;;;;;4.13;3.55;;;18.10;57.50;;;;;;5095553;28;20618;-67
2023/12/28 05:02:56;;;;;;;4.85;3.40;;;18.10;57.50;;;;;;5095190;28;20212;-68
2023/12/28 05:05:23;;;;;;;3.55;3.25;;;18.10;57.40;;;;;;5076830;28;20272;-68
2023/12/28 05:07:49;;;;;;;4.30;3.88;;;18.10;57.40;;;;;;5097757;28;20263;-67
2023/12/28 05:10:14;;;;;;;3.83;3.53;;;18.10;57.40;;;;;;5094609;28;20187;-68
2023/12/28 05:12:40;;;;;;;3.53;3.22;;;18.10;57.40;;;;;;5111719;28;20215;-68
2023/12/28 05:15:06;;;;;;;3.88;3.45;;;18.00;57.30;;;;;;5103764;28;20204;-68
2023/12/28 05:17:32;;;;;;;4.00;3.65;;;18.10;57.40;;;;;;5091200;28;20177;-68
2023/12/28 05:19:58;;;;;;;3.50;3.20;;;18.00;57.30;;;;;;5081753;28;20184;-68
2023/12/28 05:22:23;;;;;;;3.55;3.25;;;18.10;57.40;;;;;;5104714;28;20258;-68
2023/12/28 05:24:49;;;;;;;3.60;3.30;;;18.10;57.40;;;;;;5105287;28;20172;-68
2023/12/28 05:27:15;;;;;;;3.50;3.20;;;18.10;57.40;;;;;;5084500;28;20180;-68
2023/12/28 05:29:40;;;;;;;3.50;3.20;;;18.10;57.40;;;;;;5104368;28;20176;-68
2023/12/28 05:32:06;;;;;;;3.78;3.40;;;18.00;57.40;;;;;;5094422;28;20203;-68
2023/12/28 05:34:32;;;;;;;3.33;2.78;;;18.00;57.30;;;;;;5085409;28;20183;-68
2023/12/28 05:36:57;;;;;;;3.35;3.03;;;18.00;57.30;;;;;;5104917;28;20188;-68
2023/12/28 05:39:23;;;;;;;3.47;3.08;;;18.10;57.40;;;;;;5095500;28;20253;-68
2023/12/28 05:41:50;;;;;;;3.55;3.05;;;18.10;57.40;;;;;;5093123;28;20227;-68
2023/12/28 05:44:17;;;;;;;3.03;2.83;;;18.10;57.40;;;;;;5110800;28;20187;-68
2023/12/28 05:46:43;;;;;;;3.25;2.90;;;18.10;57.40;;;;;;5098731;28;20310;-68
2023/12/28 05:49:08;;;;;;;3.58;3.13;;;18.00;57.30;;;;;;5089517;28;20180;-68
2023/12/28 05:51:41;;;;;;;2.85;2.63;;;18.10;57.40;;;;;;5086503;28;20181;-68
2023/12/28 05:54:08;;;;;;;3.17;2.80;;;18.10;57.40;;;;;;5110052;28;20195;-67
2023/12/28 05:56:34;;;;;;;3.50;3.10;;;18.10;57.40;;;;;;5087925;28;20201;-68
2023/12/28 05:59:00;;;;;;;2.97;2.67;;;18.10;57.40;;;;;;5074417;28;20657;-67
2023/12/28 06:01:26;;;;;;;2.70;2.42;;;18.10;57.40;;;;;;5090520;28;20210;-68
2023/12/28 06:03:52;;;;;;;3.53;3.03;;;18.10;57.30;;;;;;5085490;28;20199;-68
2023/12/28 06:06:19;;;;;;;3.20;2.88;;;18.10;57.30;;;;;;5076277;28;20663;-68
2023/12/28 06:08:45;;;;;;;3.45;3.15;;;18.10;57.40;;;;;;5085624;28;20267;-68
2023/12/28 06:11:10;;;;;;;3.65;3.35;;;18.10;57.40;;;;;;5108745;28;20329;-67
2023/12/28 06:13:36;;;;;;;3.08;2.75;;;18.00;57.20;;;;;;5106899;28;20278;-68
2023/12/28 06:16:02;;;;;;;3.17;2.67;;;18.10;57.30;;;;;;5097569;28;20184;-67
2023/12/28 06:18:28;;;;;;;2.55;2.35;;;18.10;57.30;;;;;;5099004;28;20196;-67
2023/12/28 06:20:54;;;;;;;2.95;2.75;;;18.10;57.40;;;;;;5090862;28;20185;-68
2023/12/28 06:23:19;;;;;;;2.50;2.30;;;18.00;57.20;;;;;;5074082;28;20225;-69
2023/12/28 06:25:45;;;;;;;3.10;2.80;;;18.10;57.40;;;;;;5082292;28;20609;-68
2023/12/28 06:28:11;;;;;;;2.63;2.38;;;18.10;57.40;;;;;;5099170;28;20176;-68
2023/12/28 06:30:36;;;;;;;2.75;2.50;;;18.00;57.30;;;;;;5100225;28;20597;-67
2023/12/28 06:33:02;;;;;;;2.78;2.40;;;18.10;57.40;;;;;;5119179;27;20211;-68
2023/12/28 06:35:28;;;;;;;2.97;2.67;;;18.10;57.40;;;;;;5080612;28;20192;-68
2023/12/28 06:37:54;;;;;;;2.72;2.53;;;18.00;57.90;;;;;;5095646;28;20199;-68
2023/12/28 06:40:20;;;;;;;2.42;2.22;;;18.10;57.30;;;;;;5107832;28;20180;-68
2023/12/28 06:42:45;;;;;;;2.95;2.65;;;18.00;57.30;;;;;;5097116;28;20357;-68
2023/12/28 06:45:11;;;;;;;2.47;2.28;;;18.10;57.30;;;;;;5097764;28;20189;-68
2023/12/28 06:47:37;;;;;;;3.20;2.70;;;18.10;57.50;;;;;;5072681;28;20182;-68
2023/12/28 06:50:03;;;;;;;2.80;2.60;;;18.10;57.40;;;;;;5104404;28;20176;-68
2023/12/28 06:52:31;;;;;;;2.40;2.20;;;18.00;57.30;;;;;;5074228;28;20206;-67
2023/12/28 06:54:57;;;;;;;2.60;2.40;;;18.10;57.30;;;;;;5097554;28;20192;-67
2023/12/28 06:57:23;;;;;;;2.55;2.22;;;18.10;57.40;;;;;;5087224;28;20188;-67
2023/12/28 06:59:48;;;;;;;2.47;2.28;;;18.10;57.30;;;;;;5077486;28;20197;-68
2023/12/28 07:02:14;;;;;;;2.80;2.60;;;18.10;57.30;;;;;;5082847;28;20231;-67
2023/12/28 07:04:40;;;;;;;2.50;2.30;;;18.10;57.30;;;;;;5093279;28;20187;-68
2023/12/28 07:07:06;;;;;;;2.50;2.30;;;18.10;57.20;;;;;;5101966;28;20180;-68
2023/12/28 07:09:31;;;;;;;2.55;2.35;;;18.10;57.30;;;;;;5073262;28;20189;-67
2023/12/28 07:11:57;;;;;;;2.42;2.22;;;18.10;57.40;;;;;;5073212;28;20213;-67
2023/12/28 07:14:23;;;;;;;2.47;2.28;;;18.10;57.30;;;;;;5096664;28;20253;-68
2023/12/28 07:16:48;;;;;;;2.60;2.40;;;18.10;57.90;;;;;;5091470;28;20181;-68
2023/12/28 07:19:14;;;;;;;2.38;2.17;;;18.10;57.30;;;;;;5073570;28;20269;-68
2023/12/28 07:21:40;;;;;;;2.33;2.13;;;18.00;57.20;;;;;;5086079;28;20200;-68
2023/12/28 07:24:06;;;;;;;2.65;2.45;;;18.00;57.30;;;;;;5101533;28;20176;-68
2023/12/28 07:26:31;;;;;;;2.75;2.55;;;18.10;57.40;;;;;;5074154;28;20189;-68
2023/12/28 07:28:57;;;;;;;2.78;2.58;;;18.10;57.30;;;;;;5078578;28;20188;-68
2023/12/28 07:31:24;;;;;;;3.10;2.80;;;18.10;57.50;;;;;;5085646;28;20241;-68
2023/12/28 07:33:50;;;;;;;2.47;2.28;;;18.10;57.40;;;;;;5079681;28;20233;-68
2023/12/28 07:36:16;;;;;;;2.85;2.65;;;18.00;57.40;;;;;;5096077;28;20208;-68
2023/12/28 07:38:42;;;;;;;2.83;2.63;;;18.10;57.30;;;;;;5092175;28;20189;-67
2023/12/28 07:41:07;;;;;;;3.05;2.80;;;18.00;57.20;;;;;;5105649;28;20228;-68
2023/12/28 07:43:33;;;;;;;3.13;2.83;;;18.10;57.20;;;;;;5075594;28;20213;-67
2023/12/28 07:45:59;;;;;;;3.42;3.13;;;18.10;57.30;;;;;;5084207;28;20180;-67
2023/12/28 07:48:24;;;;;;;3.47;3.10;;;18.10;57.30;;;;;;5090033;28;20267;-68
2023/12/28 07:50:51;;;;;;;4.18;3.30;;;18.10;57.40;;;;;;5096263;28;20188;-68
2023/12/28 07:53:17;;;;;;;3.40;3.10;;;18.00;57.20;;;;;;5109005;28;20234;-68
2023/12/28 07:55:43;;;;;;;3.97;3.58;;;18.00;57.20;;;;;;5097275;28;20216;-68
2023/12/28 07:58:09;;;;;;;4.30;3.60;;;18.00;57.20;;;;;;5094695;28;20213;-68
2023/12/28 08:00:34;;;;;;;4.43;4.03;;;18.00;57.20;;;;;;5076497;28;20193;-68
2023/12/28 08:03:00;;;;;;;4.00;3.60;;;18.10;57.20;;;;;;5103118;28;20205;-68
2023/12/28 08:05:26;;;;;;;6.25;3.75;;;18.10;57.20;;;;;;5095384;28;20189;-67
2023/12/28 08:07:51;;;;;;;4.63;4.03;;;18.10;57.20;;;;;;5094134;28;20187;-67
2023/12/28 08:10:17;;;;;;;4.32;3.92;;;18.10;57.30;;;;;;5095902;28;20187;-68
2023/12/28 08:12:43;;;;;;;4.05;3.58;;;18.10;57.20;;;;;;5083876;28;20329;-67
2023/12/28 08:15:09;;;;;;;4.07;3.67;;;18.10;57.30;;;;;;5102465;28;20195;-69
2023/12/28 08:17:34;;;;;;;3.78;3.47;;;18.10;57.30;;;;;;5091578;28;20197;-67
2023/12/28 08:20:00;;;;;;;4.30;3.90;;;18.10;57.30;;;;;;5107652;28;20188;-68
2023/12/28 08:22:27;;;;;;;4.15;3.38;;;18.10;57.20;;;;;;5076856;28;20711;-68
2023/12/28 08:24:53;;;;;;;4.38;3.50;;;18.10;57.20;;;;;;5077048;28;20236;-68
2023/12/28 08:27:19;;;;;;;4.07;3.67;;;18.10;57.20;;;;;;5098443;28;20181;-68
2023/12/28 08:29:45;;;;;;;4.53;4.07;;;18.10;57.30;;;;;;5076722;28;20175;-69
2023/12/28 08:32:11;;;;;;;3.95;3.38;;;18.10;57.20;;;;;;5094068;28;20667;-68
2023/12/28 08:34:37;;;;;;;3.85;3.40;;;18.10;57.30;;;;;;5093931;28;20216;-68
2023/12/28 08:37:03;;;;;;;4.22;3.83;;;18.10;57.30;;;;;;5076828;28;20189;-68
2023/12/28 08:39:29;;;;;;;4.72;3.72;;;18.10;57.30;;;;;;5097016;28;20193;-68
2023/12/28 08:41:56;;;;;;;4.65;3.60;;;18.10;57.30;;;;;;5077890;28;20211;-68
2023/12/28 08:44:21;;;;;;;4.25;3.30;;;18.10;57.20;;;;;;5081142;28;20177;-67
2023/12/28 08:46:47;;;;;;;3.97;3.40;;;18.10;57.40;;;;;;5089584;28;20187;-68
2023/12/28 08:49:15;;;;;;;4.03;3.55;;;18.10;57.20;;;;;;5095863;28;20180;-68
2023/12/28 08:51:42;;;;;;;3.88;3.50;;;18.10;57.20;;;;;;5077809;28;20185;-68
2023/12/28 08:54:09;;;;;;;4.38;3.63;;;18.10;57.30;;;;;;5097225;28;20184;-67
2023/12/28 08:56:35;;;;;;;3.45;3.15;;;18.10;57.30;;;;;;5092579;28;20177;-68
2023/12/28 08:59:01;;;;;;;4.25;3.88;;;18.10;57.30;;;;;;5096711;28;20215;-66
2023/12/28 09:01:29;;;;;;;4.00;3.60;;;18.10;57.30;;;;;;5099235;28;20269;-68
2023/12/28 09:03:55;;;;;;;3.78;3.00;;;18.10;57.30;;;;;;5101380;28;20267;-68
2023/12/28 09:06:22;;;;;;;3.90;3.50;;;18.10;57.40;;;;;;5082190;28;20185;-68
2023/12/28 09:08:50;;;;;;;4.22;3.42;;;18.10;57.30;;;;;;5074046;28;20174;-67
2023/12/28 09:11:16;;;;;;;4.20;3.80;;;18.10;57.40;;;;;;5079972;28;20180;-68
2023/12/28 09:13:42;;;;;;;5.07;3.65;;;18.10;57.40;;;;;;5101508;28;20227;-68
2023/12/28 09:16:11;;;;;;;4.30;3.67;;;18.10;57.30;;;;;;5087369;28;20192;-67
2023/12/28 09:18:38;;;;;;;4.32;3.70;;;18.10;57.40;;;;;;5090990;28;20195;-67
2023/12/28 09:21:06;;;;;;;4.47;4.07;;;18.10;57.40;;;;;;5100050;28;20211;-67
2023/12/28 09:23:33;;;;;;;5.22;4.43;;;18.10;57.40;;;;;;5101180;28;20718;-67
2023/12/28 09:26:04;;;;;;;4.68;4.18;;;18.10;57.40;;;;;;5096819;28;20300;-68
2023/12/28 09:28:34;;;;;;;5.10;4.20;;;18.10;57.40;;;;;;5096478;28;20199;-68
2023/12/28 09:31:04;;;;;;;4.25;3.85;;;18.10;57.40;;;;;;5099176;28;20243;-68
2023/12/28 09:33:30;;;;;;;4.63;3.75;;;18.10;57.40;;;;;;5097546;28;20269;-68
2023/12/28 09:35:56;;;;;;;4.80;4.30;;;18.10;57.40;;;;;;5084084;28;20177;-69
2023/12/28 09:38:22;;;;;;;4.15;3.70;;;18.20;57.40;;;;;;5093103;28;20185;-68
2023/12/28 09:40:53;;;;;;;6.50;4.60;;;18.20;57.50;;;;;;5101681;28;20230;-68
2023/12/28 09:43:26;;;;;;;4.95;4.22;;;18.10;57.40;;;;;;5107692;28;20303;-68
2023/12/28 09:45:54;;;;;;;5.38;4.03;;;18.20;57.50;;;;;;5101950;28;20193;-69
2023/12/28 09:48:22;;;;;;;4.82;4.30;;;18.20;57.50;;;;;;5119151;27;20219;-68
2023/12/28 09:50:54;;;;;;;4.95;4.45;;;18.10;57.40;;;;;;5086081;28;20173;-68
2023/12/28 09:53:25;;;;;;;4.80;4.18;;;18.10;57.50;;;;;;5093807;28;20232;-68
2023/12/28 09:55:52;;;;;;;5.22;4.35;;;18.10;57.50;;;;;;5101384;28;20180;-68
2023/12/28 09:58:20;;;;;;;7.05;4.00;;;18.10;57.40;;;;;;5098003;28;20215;-68
2023/12/28 10:00:49;;;;;;;6.72;4.50;;;18.20;57.50;;;;;;5087788;28;20177;-68
2023/12/28 10:03:19;;;;;;;7.30;4.65;;;18.20;57.50;;;;;;5099096;28;20223;-68
2023/12/28 10:05:45;;;;;;;6.05;4.60;;;18.20;57.50;;;;;;5087860;28;20200;-68
2023/12/28 10:08:15;;;;;;;5.97;4.70;;;18.10;57.50;;;;;;5077111;28;20177;-69
2023/12/28 10:10:42;;;;;;;5.80;4.80;;;18.20;57.50;;;;;;5087576;28;20268;-69
2023/12/28 10:13:10;;;;;;;7.30;4.78;;;18.10;57.40;;;;;;5098003;28;20299;-69
2023/12/28 10:15:37;;;;;;;4.78;4.20;;;18.20;57.50;;;;;;5094832;28;20180;-69
2023/12/28 10:18:04;;;;;;;5.18;4.25;;;18.20;57.50;;;;;;5097624;28;20192;-69
2023/12/28 10:20:31;;;;;;;5.35;4.40;;;18.20;57.50;;;;;;5081948;28;20220;-68
2023/12/28 10:22:59;;;;;;;5.50;4.10;;;18.20;57.50;;;;;;5099498;28;20346;-69
2023/12/28 10:25:25;;;;;;;4.90;4.05;;;18.20;57.50;;;;;;5094625;28;20180;-69
2023/12/28 10:27:52;;;;;;;6.65;4.43;;;18.20;57.50;;;;;;5096800;28;20177;-69
2023/12/28 10:30:20;;;;;;;4.57;4.18;;;18.20;57.50;;;;;;5083424;28;20184;-69
2023/12/28 10:32:46;;;;;;;5.72;4.18;;;18.20;57.50;;;;;;5087491;28;20220;-69
2023/12/28 10:35:12;;;;;;;4.70;4.18;;;18.20;57.50;;;;;;5084043;28;20192;-69
2023/12/28 10:37:44;;;;;;;5.05;4.20;;;18.20;57.50;;;;;;5107689;28;20271;-69
2023/12/28 10:40:17;;;;;;;5.88;4.10;;;18.20;57.50;;;;;;5091160;28;20188;-68
2023/12/28 10:43:01;;;;;;;5.00;3.85;;;18.20;57.60;;;;;;5077607;28;20214;-68
2023/12/28 10:45:33;;;;;;;3.95;3.45;;;18.20;57.50;;;;;;5096819;28;20188;-68
2023/12/28 10:48:07;;;;;;;4.18;3.70;;;18.20;57.50;;;;;;5092423;28;20231;-69
2023/12/28 10:50:54;;;;;;;4.30;3.85;;;18.20;58.20;;;;;;5087419;28;20276;-69
2023/12/28 10:53:52;;;;;;;5.05;3.78;;;18.20;57.50;;;;;;5086813;28;20204;-69
2023/12/28 10:56:49;;;;;;;4.35;3.95;;;18.20;57.50;;;;;;5073019;28;20223;-69
2023/12/28 10:59:37;;;;;;;5.28;4.22;;;18.20;57.60;;;;;;5080539;28;20664;-68
2023/12/28 11:02:06;;;;;;;5.00;4.10;;;18.20;57.60;;;;;;5097972;28;20216;-69
2023/12/28 11:04:42;;;;;;;4.15;3.67;;;18.20;57.60;;;;;;5098487;28;20210;-68
2023/12/28 11:07:13;;;;;;;4.60;4.20;;;18.20;57.50;;;;;;5093510;28;20184;-68
2023/12/28 11:09:42;;;;;;;3.92;3.53;;;18.20;57.60;;;;;;5092283;28;20191;-68
2023/12/28 11:12:10;;;;;;;4.80;4.05;;;18.20;57.50;;;;;;5101487;28;20592;-69
2023/12/28 11:14:41;;;;;;;3.60;3.30;;;18.20;57.50;;;;;;5076617;28;20212;-69
2023/12/28 11:17:10;;;;;;;4.30;3.75;;;18.20;57.60;;;;;;5095597;28;20192;-68
2023/12/28 11:19:38;;;;;;;4.25;3.85;;;18.20;57.50;;;;;;5092442;28;20246;-68
2023/12/28 11:22:05;;;;;;;3.90;3.20;;;18.20;57.50;;;;;;5092017;28;20216;-69
2023/12/28 11:24:32;;;;;;;3.85;3.47;;;18.20;57.60;;;;;;5092787;28;20272;-68
2023/12/28 11:26:58;;;;;;;5.03;3.85;;;18.20;58.20;;;;;;5100882;28;20176;-68
2023/12/28 11:29:24;;;;;;;4.15;3.72;;;18.30;57.60;;;;;;5097054;28;20221;-69
2023/12/28 11:31:54;;;;;;;4.15;3.75;;;18.30;57.60;;;;;;5099957;28;20208;-69
2023/12/28 11:34:34;;;;;;;4.20;3.78;;;18.20;57.60;;;;;;5098870;28;20185;-70
2023/12/28 11:37:06;;;;;;;4.57;3.70;;;18.30;57.60;;;;;;5095217;28;20651;-69
2023/12/28 11:39:38;;;;;;;4.35;3.95;;;18.30;57.60;;;;;;5100777;28;20184;-69
2023/12/28 11:42:08;;;;;;;3.80;3.33;;;18.20;57.50;;;;;;5107278;28;20273;-69
2023/12/28 11:44:51;;;;;;;4.95;3.95;;;18.30;57.60;;;;;;5070881;28;20174;-69
2023/12/28 11:47:28;;;;;;;4.53;3.75;;;18.30;57.60;;;;;;5088407;28;20187;-69
2023/12/28 11:49:54;;;;;;;4.10;3.70;;;18.30;57.60;;;;;;5091864;28;20173;-68
2023/12/28 11:52:25;;;;;;;4.40;4.00;;;18.30;57.60;;;;;;5106508;28;20219;-69
2023/12/28 11:54:51;;;;;;;4.60;4.10;;;18.30;57.70;;;;;;5089008;28;20184;-69
2023/12/28 11:57:17;;;;;;;4.63;4.18;;;18.30;57.70;;;;;;5081675;28;20333;-69
2023/12/28 11:59:43;;;;;;;4.90;3.90;;;18.30;57.60;;;;;;5098808;28;20236;-69
2023/12/28 12:02:11;;;;;;;4.40;4.00;;;18.30;57.60;;;;;;5076322;28;20266;-69
2023/12/28 12:04:37;;;;;;;3.83;3.42;;;18.30;57.60;;;;;;5088735;28;20177;-69
2023/12/28 12:07:04;;;;;;;4.47;3.75;;;18.30;57.70;;;;;;5098378;28;20264;-69
2023/12/28 12:09:34;;;;;;;3.70;3.38;;;18.30;57.60;;;;;;5098174;28;20307;-68
2023/12/28 12:12:01;;;;;;;4.78;3.95;;;18.30;57.70;;;;;;5091777;28;20200;-68
2023/12/28 12:14:28;;;;;;;4.07;3.67;;;18.30;57.70;;;;;;5115894;27;20188;-68
2023/12/28 12:16:58;;;;;;;4.13;3.72;;;18.30;57.70;;;;;;5110597;28;20276;-68
2023/12/28 12:19:25;;;;;;;4.45;3.78;;;18.30;57.80;;;;;;5082237;28;20180;-68
2023/12/28 12:21:56;;;;;;;5.75;4.40;;;18.30;57.80;;;;;;5095123;28;20291;-68
2023/12/28 12:24:23;;;;;;;5.05;4.28;;;18.30;57.80;;;;;;5114724;27;20176;-68
2023/12/28 12:26:52;;;;;;;4.82;4.32;;;18.30;57.80;;;;;;5086811;28;20193;-68
2023/12/28 12:29:19;;;;;;;4.90;4.40;;;18.30;57.80;;;;;;5108264;28;20236;-67
2023/12/28 12:31:48;;;;;;;4.38;3.92;;;18.30;57.80;;;;;;5077218;28;20267;-68
2023/12/28 12:34:17;;;;;;;4.93;4.43;;;18.30;57.70;;;;;;5099184;28;20185;-68
2023/12/28 12:36:44;;;;;;;4.88;3.92;;;18.30;57.80;;;;;;5091120;28;20192;-68
2023/12/28 12:39:13;;;;;;;4.55;3.80;;;18.30;57.80;;;;;;5086223;28;20181;-68
2023/12/28 12:41:39;;;;;;;4.88;4.10;;;18.30;57.80;;;;;;5109681;28;20177;-68
2023/12/28 12:44:05;;;;;;;4.07;3.67;;;18.30;57.80;;;;;;5103453;28;20186;-68
2023/12/28 12:46:31;;;;;;;4.30;3.90;;;18.30;57.80;;;;;;5075799;28;20254;-68
2023/12/28 12:48:59;;;;;;;4.18;3.30;;;18.30;57.80;;;;;;5079561;28;20674;-68